sensor_id;sensor_type;location;lat;lon;timestamp;P1;durP1;ratioP1;P2;durP2;ratioP2
79145;SDS011;68792;53.338;-1.502;2023-05-07T00:00:52;1.52;;;0.80;;
79145;SDS011;68792;53.338;-1.502;2023-05-07T00:03:17;1.42;;;0.68;;
79145;SDS011;68792;53.338;-1.502;2023-05-07T00:05:44;2.95;;;0.90;;
79145;SDS011;68792;53.338;-1.502;2023-05-07T00:08:09;1.55;;;0.98;;
79145;SDS011;68792;53.338;-1.502;2023-05-07T00:10:35;1.70;;;0.90;;
79145;SDS011;68792;53.338;-1.502;2023-05-07T00:13:00;1.20;;;0.68;;
79145;SDS011;68792;53.338;-1.502;2023-05-07T00:15:26;1.38;;;0.70;;
79145;SDS011;68792;53.338;-1.502;2023-05-07T00:17:51;1.42;;;1.00;;
79145;SDS011;68792;53.338;-1.502;2023-05-07T00:20:17;3.90;;;1.00;;
79145;SDS011;68792;53.338;-1.502;2023-05-07T00:22:42;1.20;;;0.90;;
79145;SDS011;68792;53.338;-1.502;2023-05-07T00:25:08;1.23;;;0.70;;
79145;SDS011;68792;53.338;-1.502;2023-05-07T00:27:33;1.55;;;0.80;;
79145;SDS011;68792;53.338;-1.502;2023-05-07T00:29:59;1.10;;;0.93;;
79145;SDS011;68792;53.338;-1.502;2023-05-07T00:32:24;1.73;;;1.13;;
79145;SDS011;68792;53.338;-1.502;2023-05-07T00:34:49;1.45;;;0.82;;
79145;SDS011;68792;53.338;-1.502;2023-05-07T00:37:16;1.20;;;0.73;;
79145;SDS011;68792;53.338;-1.502;2023-05-07T00:39:41;1.80;;;1.10;;
79145;SDS011;68792;53.338;-1.502;2023-05-07T00:42:06;1.70;;;1.20;;
79145;SDS011;68792;53.338;-1.502;2023-05-07T00:46:58;1.27;;;0.80;;
79145;SDS011;68792;53.338;-1.502;2023-05-07T00:49:35;1.42;;;0.90;;
79145;SDS011;68792;53.338;-1.502;2023-05-07T00:52:06;1.20;;;0.70;;
79145;SDS011;68792;53.338;-1.502;2023-05-07T00:56:58;1.20;;;0.93;;
79145;SDS011;68792;53.338;-1.502;2023-05-07T00:59:24;1.30;;;1.00;;
79145;SDS011;68792;53.338;-1.502;2023-05-07T01:01:49;1.92;;;1.08;;
79145;SDS011;68792;53.338;-1.502;2023-05-07T01:04:15;1.25;;;0.95;;
79145;SDS011;68792;53.338;-1.502;2023-05-07T01:06:40;1.55;;;0.80;;
79145;SDS011;68792;53.338;-1.502;2023-05-07T01:09:06;3.33;;;0.95;;
79145;SDS011;68792;53.338;-1.502;2023-05-07T01:11:31;1.98;;;1.25;;
79145;SDS011;68792;53.338;-1.502;2023-05-07T01:13:57;1.60;;;0.80;;
79145;SDS011;68792;53.338;-1.502;2023-05-07T01:16:24;1.40;;;0.88;;
79145;SDS011;68792;53.338;-1.502;2023-05-07T01:18:49;1.45;;;0.98;;
79145;SDS011;68792;53.338;-1.502;2023-05-07T01:21:15;1.10;;;0.93;;
79145;SDS011;68792;53.338;-1.502;2023-05-07T01:23:41;1.15;;;0.80;;
79145;SDS011;68792;53.338;-1.502;2023-05-07T01:26:07;1.42;;;0.80;;
79145;SDS011;68792;53.338;-1.502;2023-05-07T01:28:32;2.28;;;1.17;;
79145;SDS011;68792;53.338;-1.502;2023-05-07T01:31:00;1.15;;;0.77;;
79145;SDS011;68792;53.338;-1.502;2023-05-07T01:33:26;1.90;;;1.00;;
79145;SDS011;68792;53.338;-1.502;2023-05-07T01:35:56;1.48;;;0.93;;
79145;SDS011;68792;53.338;-1.502;2023-05-07T01:38:23;1.35;;;1.05;;
79145;SDS011;68792;53.338;-1.502;2023-05-07T01:40:48;1.52;;;1.00;;
79145;SDS011;68792;53.338;-1.502;2023-05-07T01:43:14;1.60;;;1.20;;
79145;SDS011;68792;53.338;-1.502;2023-05-07T01:45:40;1.50;;;1.20;;
79145;SDS011;68792;53.338;-1.502;2023-05-07T01:48:06;1.48;;;0.90;;
79145;SDS011;68792;53.338;-1.502;2023-05-07T01:50:31;2.05;;;1.13;;
79145;SDS011;68792;53.338;-1.502;2023-05-07T01:52:57;2.03;;;1.10;;
79145;SDS011;68792;53.338;-1.502;2023-05-07T01:55:22;1.70;;;1.05;;
79145;SDS011;68792;53.338;-1.502;2023-05-07T01:57:48;1.27;;;0.90;;
79145;SDS011;68792;53.338;-1.502;2023-05-07T02:00:14;1.15;;;0.95;;
79145;SDS011;68792;53.338;-1.502;2023-05-07T02:02:39;1.85;;;1.08;;
79145;SDS011;68792;53.338;-1.502;2023-05-07T02:05:05;2.60;;;1.15;;
79145;SDS011;68792;53.338;-1.502;2023-05-07T02:07:31;1.60;;;1.17;;
79145;SDS011;68792;53.338;-1.502;2023-05-07T02:09:56;1.90;;;1.30;;
79145;SDS011;68792;53.338;-1.502;2023-05-07T02:12:22;1.63;;;1.20;;
79145;SDS011;68792;53.338;-1.502;2023-05-07T02:14:47;3.00;;;1.00;;
79145;SDS011;68792;53.338;-1.502;2023-05-07T02:17:13;1.35;;;1.10;;
79145;SDS011;68792;53.338;-1.502;2023-05-07T02:19:38;1.70;;;1.20;;
79145;SDS011;68792;53.338;-1.502;2023-05-07T02:22:04;1.48;;;1.08;;
79145;SDS011;68792;53.338;-1.502;2023-05-07T02:24:29;4.03;;;1.40;;
79145;SDS011;68792;53.338;-1.502;2023-05-07T02:26:55;1.55;;;0.98;;
79145;SDS011;68792;53.338;-1.502;2023-05-07T02:29:20;1.80;;;1.00;;
79145;SDS011;68792;53.338;-1.502;2023-05-07T02:31:45;1.60;;;1.00;;
79145;SDS011;68792;53.338;-1.502;2023-05-07T02:34:12;1.75;;;1.50;;
79145;SDS011;68792;53.338;-1.502;2023-05-07T02:36:37;1.50;;;1.02;;
79145;SDS011;68792;53.338;-1.502;2023-05-07T02:39:03;1.55;;;0.98;;
79145;SDS011;68792;53.338;-1.502;2023-05-07T02:41:28;2.10;;;1.40;;
79145;SDS011;68792;53.338;-1.502;2023-05-07T02:43:53;2.40;;;1.15;;
79145;SDS011;68792;53.338;-1.502;2023-05-07T02:46:19;1.55;;;1.20;;
79145;SDS011;68792;53.338;-1.502;2023-05-07T02:48:44;1.55;;;1.15;;
79145;SDS011;68792;53.338;-1.502;2023-05-07T02:51:10;3.63;;;1.05;;
79145;SDS011;68792;53.338;-1.502;2023-05-07T02:53:35;2.00;;;1.20;;
79145;SDS011;68792;53.338;-1.502;2023-05-07T02:56:01;1.55;;;1.25;;
79145;SDS011;68792;53.338;-1.502;2023-05-07T02:58:27;2.00;;;1.55;;
79145;SDS011;68792;53.338;-1.502;2023-05-07T03:00:52;1.38;;;1.20;;
79145;SDS011;68792;53.338;-1.502;2023-05-07T03:03:19;1.73;;;1.20;;
79145;SDS011;68792;53.338;-1.502;2023-05-07T03:05:45;2.88;;;1.45;;
79145;SDS011;68792;53.338;-1.502;2023-05-07T03:08:10;2.03;;;1.30;;
79145;SDS011;68792;53.338;-1.502;2023-05-07T03:10:36;1.77;;;1.38;;
79145;SDS011;68792;53.338;-1.502;2023-05-07T03:13:02;1.63;;;1.17;;
79145;SDS011;68792;53.338;-1.502;2023-05-07T03:15:27;1.50;;;1.05;;
79145;SDS011;68792;53.338;-1.502;2023-05-07T03:17:53;1.95;;;1.10;;
79145;SDS011;68792;53.338;-1.502;2023-05-07T03:20:18;2.20;;;1.30;;
79145;SDS011;68792;53.338;-1.502;2023-05-07T03:22:44;1.80;;;1.40;;
79145;SDS011;68792;53.338;-1.502;2023-05-07T03:25:09;2.35;;;1.23;;
79145;SDS011;68792;53.338;-1.502;2023-05-07T03:27:35;1.52;;;1.20;;
79145;SDS011;68792;53.338;-1.502;2023-05-07T03:30:00;2.35;;;1.63;;
79145;SDS011;68792;53.338;-1.502;2023-05-07T03:32:26;1.80;;;1.35;;
79145;SDS011;68792;53.338;-1.502;2023-05-07T03:34:51;2.13;;;0.90;;
79145;SDS011;68792;53.338;-1.502;2023-05-07T03:37:16;1.80;;;1.10;;
79145;SDS011;68792;53.338;-1.502;2023-05-07T03:39:42;2.25;;;1.20;;
79145;SDS011;68792;53.338;-1.502;2023-05-07T03:42:07;2.17;;;1.35;;
79145;SDS011;68792;53.338;-1.502;2023-05-07T03:44:33;1.48;;;0.98;;
79145;SDS011;68792;53.338;-1.502;2023-05-07T03:46:58;1.88;;;1.30;;
79145;SDS011;68792;53.338;-1.502;2023-05-07T03:49:23;1.73;;;1.10;;
79145;SDS011;68792;53.338;-1.502;2023-05-07T03:51:49;1.75;;;1.17;;
79145;SDS011;68792;53.338;-1.502;2023-05-07T03:54:14;2.17;;;1.60;;
79145;SDS011;68792;53.338;-1.502;2023-05-07T03:56:40;1.92;;;1.50;;
79145;SDS011;68792;53.338;-1.502;2023-05-07T03:59:05;1.90;;;1.08;;
79145;SDS011;68792;53.338;-1.502;2023-05-07T04:01:30;2.13;;;1.27;;
79145;SDS011;68792;53.338;-1.502;2023-05-07T04:03:56;1.92;;;1.30;;
79145;SDS011;68792;53.338;-1.502;2023-05-07T04:06:21;2.20;;;1.50;;
79145;SDS011;68792;53.338;-1.502;2023-05-07T04:08:47;2.08;;;1.30;;
79145;SDS011;68792;53.338;-1.502;2023-05-07T04:11:12;1.85;;;1.20;;
79145;SDS011;68792;53.338;-1.502;2023-05-07T04:13:38;2.55;;;1.52;;
79145;SDS011;68792;53.338;-1.502;2023-05-07T04:16:03;1.50;;;1.20;;
79145;SDS011;68792;53.338;-1.502;2023-05-07T04:18:29;2.15;;;1.38;;
79145;SDS011;68792;53.338;-1.502;2023-05-07T04:20:55;1.83;;;1.35;;
79145;SDS011;68792;53.338;-1.502;2023-05-07T04:23:20;2.00;;;1.42;;
79145;SDS011;68792;53.338;-1.502;2023-05-07T04:25:46;2.45;;;1.40;;
79145;SDS011;68792;53.338;-1.502;2023-05-07T04:28:12;2.17;;;1.20;;
79145;SDS011;68792;53.338;-1.502;2023-05-07T04:30:37;2.03;;;1.30;;
79145;SDS011;68792;53.338;-1.502;2023-05-07T04:33:03;1.95;;;1.60;;
79145;SDS011;68792;53.338;-1.502;2023-05-07T04:35:28;1.90;;;1.30;;
79145;SDS011;68792;53.338;-1.502;2023-05-07T04:37:54;1.90;;;1.20;;
79145;SDS011;68792;53.338;-1.502;2023-05-07T04:40:20;2.33;;;1.38;;
79145;SDS011;68792;53.338;-1.502;2023-05-07T04:42:45;1.95;;;1.23;;
79145;SDS011;68792;53.338;-1.502;2023-05-07T04:45:10;2.80;;;1.63;;
79145;SDS011;68792;53.338;-1.502;2023-05-07T04:47:37;1.67;;;1.20;;
79145;SDS011;68792;53.338;-1.502;2023-05-07T04:50:03;1.90;;;1.27;;
79145;SDS011;68792;53.338;-1.502;2023-05-07T04:52:28;1.95;;;1.52;;
79145;SDS011;68792;53.338;-1.502;2023-05-07T04:54:54;2.15;;;1.58;;
79145;SDS011;68792;53.338;-1.502;2023-05-07T04:57:19;1.77;;;1.02;;
79145;SDS011;68792;53.338;-1.502;2023-05-07T04:59:45;1.70;;;1.30;;
79145;SDS011;68792;53.338;-1.502;2023-05-07T05:02:10;2.50;;;1.17;;
79145;SDS011;68792;53.338;-1.502;2023-05-07T05:04:36;3.05;;;1.40;;
79145;SDS011;68792;53.338;-1.502;2023-05-07T05:07:02;1.88;;;1.30;;
79145;SDS011;68792;53.338;-1.502;2023-05-07T05:09:29;2.10;;;1.38;;
79145;SDS011;68792;53.338;-1.502;2023-05-07T05:11:54;2.35;;;1.40;;
79145;SDS011;68792;53.338;-1.502;2023-05-07T05:14:20;2.00;;;1.45;;
79145;SDS011;68792;53.338;-1.502;2023-05-07T05:16:45;1.70;;;1.30;;
79145;SDS011;68792;53.338;-1.502;2023-05-07T05:19:10;1.33;;;0.82;;
79145;SDS011;68792;53.338;-1.502;2023-05-07T05:21:36;1.90;;;1.20;;
79145;SDS011;68792;53.338;-1.502;2023-05-07T05:24:01;2.00;;;1.30;;
79145;SDS011;68792;53.338;-1.502;2023-05-07T05:26:27;1.75;;;1.15;;
79145;SDS011;68792;53.338;-1.502;2023-05-07T05:28:52;2.15;;;1.20;;
79145;SDS011;68792;53.338;-1.502;2023-05-07T05:31:18;1.50;;;1.25;;
79145;SDS011;68792;53.338;-1.502;2023-05-07T05:33:43;1.75;;;1.20;;
79145;SDS011;68792;53.338;-1.502;2023-05-07T05:36:11;1.80;;;1.30;;
79145;SDS011;68792;53.338;-1.502;2023-05-07T05:38:38;1.83;;;0.93;;
79145;SDS011;68792;53.338;-1.502;2023-05-07T05:41:04;1.67;;;1.00;;
79145;SDS011;68792;53.338;-1.502;2023-05-07T05:43:29;1.25;;;0.82;;
79145;SDS011;68792;53.338;-1.502;2023-05-07T05:45:55;1.92;;;1.25;;
79145;SDS011;68792;53.338;-1.502;2023-05-07T05:48:21;1.60;;;1.05;;
79145;SDS011;68792;53.338;-1.502;2023-05-07T05:50:46;1.30;;;0.88;;
79145;SDS011;68792;53.338;-1.502;2023-05-07T05:53:12;1.00;;;0.88;;
79145;SDS011;68792;53.338;-1.502;2023-05-07T05:55:37;1.60;;;0.80;;
79145;SDS011;68792;53.338;-1.502;2023-05-07T05:58:02;1.02;;;0.60;;
79145;SDS011;68792;53.338;-1.502;2023-05-07T06:00:28;1.13;;;0.80;;
79145;SDS011;68792;53.338;-1.502;2023-05-07T06:02:54;0.73;;;0.70;;
79145;SDS011;68792;53.338;-1.502;2023-05-07T06:05:19;1.10;;;0.73;;
79145;SDS011;68792;53.338;-1.502;2023-05-07T06:07:45;1.30;;;1.00;;
79145;SDS011;68792;53.338;-1.502;2023-05-07T06:10:10;2.42;;;0.60;;
79145;SDS011;68792;53.338;-1.502;2023-05-07T06:12:36;1.08;;;0.75;;
79145;SDS011;68792;53.338;-1.502;2023-05-07T06:15:01;1.40;;;1.10;;
79145;SDS011;68792;53.338;-1.502;2023-05-07T06:17:27;1.13;;;0.57;;
79145;SDS011;68792;53.338;-1.502;2023-05-07T06:19:52;0.80;;;0.63;;
79145;SDS011;68792;53.338;-1.502;2023-05-07T06:22:18;0.98;;;0.65;;
79145;SDS011;68792;53.338;-1.502;2023-05-07T06:24:43;1.10;;;0.80;;
79145;SDS011;68792;53.338;-1.502;2023-05-07T06:27:09;0.82;;;0.60;;
79145;SDS011;68792;53.338;-1.502;2023-05-07T06:29:34;1.90;;;0.70;;
79145;SDS011;68792;53.338;-1.502;2023-05-07T06:32:06;1.00;;;0.90;;
79145;SDS011;68792;53.338;-1.502;2023-05-07T06:34:35;1.00;;;0.55;;
79145;SDS011;68792;53.338;-1.502;2023-05-07T06:37:01;1.17;;;0.70;;
79145;SDS011;68792;53.338;-1.502;2023-05-07T06:39:26;1.35;;;0.70;;
79145;SDS011;68792;53.338;-1.502;2023-05-07T06:41:52;1.00;;;0.60;;
79145;SDS011;68792;53.338;-1.502;2023-05-07T06:44:17;0.88;;;0.50;;
79145;SDS011;68792;53.338;-1.502;2023-05-07T06:46:42;1.13;;;0.68;;
79145;SDS011;68792;53.338;-1.502;2023-05-07T06:49:08;0.90;;;0.60;;
79145;SDS011;68792;53.338;-1.502;2023-05-07T06:51:33;1.30;;;0.80;;
79145;SDS011;68792;53.338;-1.502;2023-05-07T06:53:59;0.80;;;0.55;;
79145;SDS011;68792;53.338;-1.502;2023-05-07T06:56:24;0.90;;;0.70;;
79145;SDS011;68792;53.338;-1.502;2023-05-07T06:58:50;1.42;;;0.60;;
79145;SDS011;68792;53.338;-1.502;2023-05-07T07:01:15;0.68;;;0.50;;
79145;SDS011;68792;53.338;-1.502;2023-05-07T07:03:41;0.57;;;0.47;;
79145;SDS011;68792;53.338;-1.502;2023-05-07T07:06:06;1.10;;;0.40;;
79145;SDS011;68792;53.338;-1.502;2023-05-07T07:08:32;4.90;;;0.88;;
79145;SDS011;68792;53.338;-1.502;2023-05-07T07:10:57;11.18;;;1.00;;
79145;SDS011;68792;53.338;-1.502;2023-05-07T07:13:23;1.20;;;0.60;;
79145;SDS011;68792;53.338;-1.502;2023-05-07T07:15:48;5.13;;;0.70;;
79145;SDS011;68792;53.338;-1.502;2023-05-07T07:18:14;5.20;;;0.68;;
79145;SDS011;68792;53.338;-1.502;2023-05-07T07:20:39;3.13;;;0.63;;
79145;SDS011;68792;53.338;-1.502;2023-05-07T07:23:04;3.08;;;0.70;;
79145;SDS011;68792;53.338;-1.502;2023-05-07T07:25:30;1.92;;;0.60;;
79145;SDS011;68792;53.338;-1.502;2023-05-07T07:27:56;2.45;;;0.60;;
79145;SDS011;68792;53.338;-1.502;2023-05-07T07:30:21;2.25;;;0.65;;
79145;SDS011;68792;53.338;-1.502;2023-05-07T07:32:47;0.73;;;0.52;;
79145;SDS011;68792;53.338;-1.502;2023-05-07T07:35:12;1.40;;;0.60;;
79145;SDS011;68792;53.338;-1.502;2023-05-07T07:37:37;1.48;;;0.60;;
79145;SDS011;68792;53.338;-1.502;2023-05-07T07:40:03;1.75;;;0.43;;
79145;SDS011;68792;53.338;-1.502;2023-05-07T07:42:29;1.77;;;0.73;;
79145;SDS011;68792;53.338;-1.502;2023-05-07T07:44:54;3.15;;;0.80;;
79145;SDS011;68792;53.338;-1.502;2023-05-07T07:47:20;1.05;;;0.60;;
79145;SDS011;68792;53.338;-1.502;2023-05-07T07:49:45;2.35;;;0.60;;
79145;SDS011;68792;53.338;-1.502;2023-05-07T07:52:10;1.35;;;0.70;;
79145;SDS011;68792;53.338;-1.502;2023-05-07T07:54:36;2.35;;;0.50;;
79145;SDS011;68792;53.338;-1.502;2023-05-07T07:57:01;2.15;;;0.73;;
79145;SDS011;68792;53.338;-1.502;2023-05-07T07:59:27;3.72;;;0.75;;
79145;SDS011;68792;53.338;-1.502;2023-05-07T08:01:52;1.40;;;0.63;;
79145;SDS011;68792;53.338;-1.502;2023-05-07T08:04:20;0.70;;;0.60;;
79145;SDS011;68792;53.338;-1.502;2023-05-07T08:06:46;0.93;;;0.60;;
79145;SDS011;68792;53.338;-1.502;2023-05-07T08:09:11;1.15;;;0.70;;
79145;SDS011;68792;53.338;-1.502;2023-05-07T08:11:38;2.03;;;0.60;;
79145;SDS011;68792;53.338;-1.502;2023-05-07T08:14:03;1.90;;;0.60;;
79145;SDS011;68792;53.338;-1.502;2023-05-07T08:16:29;1.20;;;0.68;;
79145;SDS011;68792;53.338;-1.502;2023-05-07T08:18:55;1.98;;;0.73;;
79145;SDS011;68792;53.338;-1.502;2023-05-07T08:21:21;1.23;;;0.47;;
79145;SDS011;68792;53.338;-1.502;2023-05-07T08:23:47;1.00;;;0.80;;
79145;SDS011;68792;53.338;-1.502;2023-05-07T08:26:13;1.73;;;0.50;;
79145;SDS011;68792;53.338;-1.502;2023-05-07T08:28:38;1.30;;;0.60;;
79145;SDS011;68792;53.338;-1.502;2023-05-07T08:33:30;1.20;;;0.75;;
79145;SDS011;68792;53.338;-1.502;2023-05-07T08:35:55;0.98;;;0.63;;
79145;SDS011;68792;53.338;-1.502;2023-05-07T08:38:21;1.20;;;0.90;;
79145;SDS011;68792;53.338;-1.502;2023-05-07T08:40:46;2.17;;;0.90;;
79145;SDS011;68792;53.338;-1.502;2023-05-07T08:43:12;0.90;;;0.65;;
79145;SDS011;68792;53.338;-1.502;2023-05-07T08:45:39;0.75;;;0.60;;
79145;SDS011;68792;53.338;-1.502;2023-05-07T08:48:08;1.48;;;0.50;;
79145;SDS011;68792;53.338;-1.502;2023-05-07T08:50:37;1.42;;;0.70;;
79145;SDS011;68792;53.338;-1.502;2023-05-07T08:53:03;1.90;;;0.50;;
79145;SDS011;68792;53.338;-1.502;2023-05-07T08:55:30;0.88;;;0.47;;
79145;SDS011;68792;53.338;-1.502;2023-05-07T08:57:56;0.80;;;0.63;;
79145;SDS011;68792;53.338;-1.502;2023-05-07T09:00:21;3.67;;;0.60;;
79145;SDS011;68792;53.338;-1.502;2023-05-07T09:02:47;0.80;;;0.52;;
79145;SDS011;68792;53.338;-1.502;2023-05-07T09:05:12;1.10;;;0.52;;
79145;SDS011;68792;53.338;-1.502;2023-05-07T09:07:38;1.63;;;0.63;;
79145;SDS011;68792;53.338;-1.502;2023-05-07T09:10:04;2.28;;;0.52;;
79145;SDS011;68792;53.338;-1.502;2023-05-07T09:12:30;1.00;;;0.50;;
79145;SDS011;68792;53.338;-1.502;2023-05-07T09:14:56;2.05;;;0.80;;
79145;SDS011;68792;53.338;-1.502;2023-05-07T09:17:21;0.95;;;0.52;;
79145;SDS011;68792;53.338;-1.502;2023-05-07T09:19:47;1.98;;;0.70;;
79145;SDS011;68792;53.338;-1.502;2023-05-07T09:22:12;0.60;;;0.40;;
79145;SDS011;68792;53.338;-1.502;2023-05-07T09:24:38;1.52;;;0.55;;
79145;SDS011;68792;53.338;-1.502;2023-05-07T09:27:04;1.35;;;0.60;;
79145;SDS011;68792;53.338;-1.502;2023-05-07T09:29:30;2.08;;;0.90;;
79145;SDS011;68792;53.338;-1.502;2023-05-07T09:32:03;1.13;;;0.60;;
79145;SDS011;68792;53.338;-1.502;2023-05-07T09:34:30;1.30;;;0.80;;
79145;SDS011;68792;53.338;-1.502;2023-05-07T09:36:56;0.85;;;0.55;;
79145;SDS011;68792;53.338;-1.502;2023-05-07T09:39:23;1.48;;;0.63;;
79145;SDS011;68792;53.338;-1.502;2023-05-07T09:41:49;1.08;;;0.60;;
79145;SDS011;68792;53.338;-1.502;2023-05-07T09:44:16;1.13;;;0.63;;
79145;SDS011;68792;53.338;-1.502;2023-05-07T09:46:42;1.00;;;0.50;;
79145;SDS011;68792;53.338;-1.502;2023-05-07T09:49:12;1.20;;;0.70;;
79145;SDS011;68792;53.338;-1.502;2023-05-07T09:51:48;1.70;;;0.55;;
79145;SDS011;68792;53.338;-1.502;2023-05-07T09:54:15;0.77;;;0.40;;
79145;SDS011;68792;53.338;-1.502;2023-05-07T09:56:40;1.13;;;0.68;;
79145;SDS011;68792;53.338;-1.502;2023-05-07T09:59:08;1.15;;;0.55;;
79145;SDS011;68792;53.338;-1.502;2023-05-07T10:01:36;1.60;;;0.60;;
79145;SDS011;68792;53.338;-1.502;2023-05-07T10:04:02;2.20;;;0.90;;
79145;SDS011;68792;53.338;-1.502;2023-05-07T10:06:33;1.15;;;0.63;;
79145;SDS011;68792;53.338;-1.502;2023-05-07T10:08:59;1.00;;;0.50;;
79145;SDS011;68792;53.338;-1.502;2023-05-07T10:11:25;1.30;;;0.45;;
79145;SDS011;68792;53.338;-1.502;2023-05-07T10:13:51;1.67;;;0.80;;
79145;SDS011;68792;53.338;-1.502;2023-05-07T10:16:17;0.82;;;0.60;;
79145;SDS011;68792;53.338;-1.502;2023-05-07T10:18:43;3.03;;;0.80;;
79145;SDS011;68792;53.338;-1.502;2023-05-07T10:21:14;0.68;;;0.40;;
79145;SDS011;68792;53.338;-1.502;2023-05-07T10:23:44;1.35;;;0.65;;
79145;SDS011;68792;53.338;-1.502;2023-05-07T10:26:10;1.45;;;0.63;;
79145;SDS011;68792;53.338;-1.502;2023-05-07T10:31:18;1.95;;;0.80;;
79145;SDS011;68792;53.338;-1.502;2023-05-07T10:33:49;5.70;;;1.02;;
79145;SDS011;68792;53.338;-1.502;2023-05-07T10:36:17;1.23;;;0.77;;
79145;SDS011;68792;53.338;-1.502;2023-05-07T10:38:43;1.60;;;0.70;;
79145;SDS011;68792;53.338;-1.502;2023-05-07T10:41:09;8.25;;;0.70;;
79145;SDS011;68792;53.338;-1.502;2023-05-07T10:43:41;1.63;;;0.63;;
79145;SDS011;68792;53.338;-1.502;2023-05-07T10:51:33;2.00;;;0.50;;
79145;SDS011;68792;53.338;-1.502;2023-05-07T10:56:34;2.22;;;0.88;;
79145;SDS011;68792;53.338;-1.502;2023-05-07T11:04:20;1.58;;;0.93;;
79145;SDS011;68792;53.338;-1.502;2023-05-07T11:15:06;5.05;;;0.90;;
79145;SDS011;68792;53.338;-1.502;2023-05-07T11:17:33;2.22;;;0.50;;
79145;SDS011;68792;53.338;-1.502;2023-05-07T11:20:02;1.27;;;0.70;;
79145;SDS011;68792;53.338;-1.502;2023-05-07T11:24:56;1.90;;;0.80;;
79145;SDS011;68792;53.338;-1.502;2023-05-07T11:27:28;1.10;;;0.75;;
79145;SDS011;68792;53.338;-1.502;2023-05-07T11:29:54;1.83;;;0.80;;
79145;SDS011;68792;53.338;-1.502;2023-05-07T11:32:23;1.40;;;0.73;;
79145;SDS011;68792;53.338;-1.502;2023-05-07T11:34:54;1.30;;;0.80;;
79145;SDS011;68792;53.338;-1.502;2023-05-07T11:37:21;1.33;;;0.60;;
79145;SDS011;68792;53.338;-1.502;2023-05-07T11:39:47;0.80;;;0.60;;
79145;SDS011;68792;53.338;-1.502;2023-05-07T11:42:29;0.95;;;0.68;;
79145;SDS011;68792;53.338;-1.502;2023-05-07T11:44:55;4.20;;;1.00;;
79145;SDS011;68792;53.338;-1.502;2023-05-07T11:47:21;1.65;;;0.80;;
79145;SDS011;68792;53.338;-1.502;2023-05-07T11:49:47;0.60;;;0.52;;
79145;SDS011;68792;53.338;-1.502;2023-05-07T11:52:16;1.05;;;0.75;;
79145;SDS011;68792;53.338;-1.502;2023-05-07T11:54:52;1.40;;;0.75;;
79145;SDS011;68792;53.338;-1.502;2023-05-07T11:57:20;1.30;;;0.70;;
79145;SDS011;68792;53.338;-1.502;2023-05-07T11:59:45;1.15;;;0.60;;
79145;SDS011;68792;53.338;-1.502;2023-05-07T12:02:16;1.38;;;0.70;;
79145;SDS011;68792;53.338;-1.502;2023-05-07T12:04:42;1.50;;;0.70;;
79145;SDS011;68792;53.338;-1.502;2023-05-07T12:07:11;1.80;;;0.50;;
79145;SDS011;68792;53.338;-1.502;2023-05-07T12:12:05;2.03;;;0.70;;
79145;SDS011;68792;53.338;-1.502;2023-05-07T12:14:31;0.90;;;0.60;;
79145;SDS011;68792;53.338;-1.502;2023-05-07T12:16:57;1.85;;;0.80;;
79145;SDS011;68792;53.338;-1.502;2023-05-07T12:19:23;0.82;;;0.63;;
79145;SDS011;68792;53.338;-1.502;2023-05-07T12:21:49;1.42;;;0.70;;
79145;SDS011;68792;53.338;-1.502;2023-05-07T12:24:14;1.00;;;0.60;;
79145;SDS011;68792;53.338;-1.502;2023-05-07T12:26:40;0.73;;;0.50;;
79145;SDS011;68792;53.338;-1.502;2023-05-07T12:29:06;1.48;;;0.80;;
79145;SDS011;68792;53.338;-1.502;2023-05-07T12:31:31;1.40;;;0.50;;
79145;SDS011;68792;53.338;-1.502;2023-05-07T12:33:57;1.77;;;0.77;;
79145;SDS011;68792;53.338;-1.502;2023-05-07T12:36:22;1.20;;;0.60;;
79145;SDS011;68792;53.338;-1.502;2023-05-07T12:38:49;1.00;;;0.90;;
79145;SDS011;68792;53.338;-1.502;2023-05-07T12:41:15;1.17;;;0.88;;
79145;SDS011;68792;53.338;-1.502;2023-05-07T12:43:42;0.93;;;0.55;;
79145;SDS011;68792;53.338;-1.502;2023-05-07T12:46:09;1.40;;;0.68;;
79145;SDS011;68792;53.338;-1.502;2023-05-07T12:48:38;1.08;;;0.60;;
79145;SDS011;68792;53.338;-1.502;2023-05-07T12:51:08;1.48;;;0.70;;
79145;SDS011;68792;53.338;-1.502;2023-05-07T12:53:39;1.90;;;0.50;;
79145;SDS011;68792;53.338;-1.502;2023-05-07T12:56:05;1.48;;;0.90;;
79145;SDS011;68792;53.338;-1.502;2023-05-07T12:58:32;1.52;;;0.65;;
79145;SDS011;68792;53.338;-1.502;2023-05-07T13:00:59;1.75;;;0.63;;
79145;SDS011;68792;53.338;-1.502;2023-05-07T13:03:29;1.30;;;0.73;;
79145;SDS011;68792;53.338;-1.502;2023-05-07T13:05:56;1.10;;;0.73;;
79145;SDS011;68792;53.338;-1.502;2023-05-07T13:08:33;1.30;;;0.80;;
79145;SDS011;68792;53.338;-1.502;2023-05-07T13:11:01;1.60;;;0.70;;
79145;SDS011;68792;53.338;-1.502;2023-05-07T13:13:29;1.45;;;0.55;;
79145;SDS011;68792;53.338;-1.502;2023-05-07T13:15:55;1.38;;;0.60;;
79145;SDS011;68792;53.338;-1.502;2023-05-07T13:18:21;1.50;;;0.80;;
79145;SDS011;68792;53.338;-1.502;2023-05-07T13:20:46;1.67;;;0.77;;
79145;SDS011;68792;53.338;-1.502;2023-05-07T13:23:12;1.15;;;0.60;;
79145;SDS011;68792;53.338;-1.502;2023-05-07T13:25:37;1.45;;;0.75;;
79145;SDS011;68792;53.338;-1.502;2023-05-07T13:28:03;1.00;;;0.70;;
79145;SDS011;68792;53.338;-1.502;2023-05-07T13:32:55;1.52;;;0.80;;
79145;SDS011;68792;53.338;-1.502;2023-05-07T13:35:20;1.10;;;0.70;;
79145;SDS011;68792;53.338;-1.502;2023-05-07T13:37:46;0.85;;;0.75;;
79145;SDS011;68792;53.338;-1.502;2023-05-07T13:40:13;2.13;;;0.82;;
79145;SDS011;68792;53.338;-1.502;2023-05-07T13:42:38;1.30;;;0.77;;
79145;SDS011;68792;53.338;-1.502;2023-05-07T13:45:04;0.98;;;0.50;;
79145;SDS011;68792;53.338;-1.502;2023-05-07T13:47:30;1.00;;;0.75;;
79145;SDS011;68792;53.338;-1.502;2023-05-07T13:49:55;1.35;;;0.82;;
79145;SDS011;68792;53.338;-1.502;2023-05-07T13:52:21;1.23;;;0.63;;
79145;SDS011;68792;53.338;-1.502;2023-05-07T13:54:46;1.60;;;0.80;;
79145;SDS011;68792;53.338;-1.502;2023-05-07T13:57:12;1.80;;;0.60;;
79145;SDS011;68792;53.338;-1.502;2023-05-07T13:59:37;2.03;;;0.63;;
79145;SDS011;68792;53.338;-1.502;2023-05-07T14:02:02;1.48;;;0.70;;
79145;SDS011;68792;53.338;-1.502;2023-05-07T14:04:28;2.30;;;0.90;;
79145;SDS011;68792;53.338;-1.502;2023-05-07T14:06:53;0.98;;;0.80;;
79145;SDS011;68792;53.338;-1.502;2023-05-07T14:09:19;2.38;;;0.95;;
79145;SDS011;68792;53.338;-1.502;2023-05-07T14:11:44;1.60;;;0.60;;
79145;SDS011;68792;53.338;-1.502;2023-05-07T14:14:11;1.83;;;0.90;;
79145;SDS011;68792;53.338;-1.502;2023-05-07T14:16:36;5.15;;;0.70;;
79145;SDS011;68792;53.338;-1.502;2023-05-07T14:19:02;0.98;;;0.57;;
79145;SDS011;68792;53.338;-1.502;2023-05-07T14:21:27;2.00;;;0.70;;
79145;SDS011;68792;53.338;-1.502;2023-05-07T14:23:53;3.22;;;1.10;;
79145;SDS011;68792;53.338;-1.502;2023-05-07T14:26:18;2.10;;;1.02;;
79145;SDS011;68792;53.338;-1.502;2023-05-07T14:28:44;1.20;;;0.82;;
79145;SDS011;68792;53.338;-1.502;2023-05-07T14:31:11;2.40;;;0.80;;
79145;SDS011;68792;53.338;-1.502;2023-05-07T14:33:37;2.70;;;0.82;;
79145;SDS011;68792;53.338;-1.502;2023-05-07T14:36:02;2.13;;;0.80;;
79145;SDS011;68792;53.338;-1.502;2023-05-07T14:38:28;1.52;;;0.70;;
79145;SDS011;68792;53.338;-1.502;2023-05-07T14:40:54;2.38;;;1.00;;
79145;SDS011;68792;53.338;-1.502;2023-05-07T14:43:21;1.20;;;0.70;;
79145;SDS011;68792;53.338;-1.502;2023-05-07T14:45:46;4.22;;;0.93;;
79145;SDS011;68792;53.338;-1.502;2023-05-07T14:48:12;3.38;;;1.00;;
79145;SDS011;68792;53.338;-1.502;2023-05-07T14:50:40;2.40;;;1.02;;
79145;SDS011;68792;53.338;-1.502;2023-05-07T14:53:06;2.80;;;0.90;;
79145;SDS011;68792;53.338;-1.502;2023-05-07T14:55:31;5.00;;;1.20;;
79145;SDS011;68792;53.338;-1.502;2023-05-07T14:57:57;2.95;;;1.00;;
79145;SDS011;68792;53.338;-1.502;2023-05-07T15:00:22;4.72;;;1.00;;
79145;SDS011;68792;53.338;-1.502;2023-05-07T15:02:48;1.88;;;1.10;;
79145;SDS011;68792;53.338;-1.502;2023-05-07T15:05:13;5.70;;;1.33;;